Предлагаем Вашему вниманию английскую версию страницы: AUTOTAF.ME 22762 - aviation weather forecast Dvinskij Bereznik

AUTOTAF 22762 - авиапрогноз Двинский Березник

Сегодня рассвет 03:28 UTC, восход солнца 04:15 UTC,
местный полдень 08:53 UTC, заход солнца 13:31 UTC,
наступление темноты 14:19 UTC.

Краткий прогноз 22762 на 9 часов

AUTOTAF.ME 22762 212000Z 2121/2206 VRB02MPS 1000 BR BKN003    
  FM220000 VRB02MPS 0500 FG BKN002 
  BECMG 2201/2203 BKN001  
  FM220600 VRB02MPS 3000 BR BKN001

Детальный прогноз 22762 на 24 часа

AUTOTAF.ME 22762 212000Z 2121/2221 VRB02MPS 1000 BR BKN003 TX00/2212Z TNM05/2203Z  
  FM220000 VRB02MPS 0500 FG BKN002 
  BECMG 2201/2203 BKN001  
  FM220600 VRB02MPS 3000 BR BKN001 
  FM220900 VRB02MPS 9999 BKN005  
  FM221500 14003MPS 5000 BR BKN008  
  FM222100 14004MPS 9999 BKN006

Подробный табличный прогноз

Время (UTC) miniAUTOTAF на 3 ч WX FZLVL
M AGL
ICE TURB Т
(°С)
Тd
(°С)
f(%) QNH
(гПа)
WIND/T
18 VRB02MPS 1000 BR BKN003 BR SFC MOD FL10/FL110 -4 -4 96 1014 ...
21 VRB02MPS 1000 BR BKN003 BR SFC MOD FL10/FL20 -4 -5 96 1014 ...
22.10.2020
00 VRB02MPS 0500 FG BKN002 FG SFC FBL FL10/FL90 -4 -5 98 1016 ...
03 VRB02MPS 0500 FG BKN001 FG SFC MOD FL20/FL50 -5 -6 98 1016 ...
06 VRB02MPS 3000 BR BKN001 BR SFC MOD FL20/FL90 -4 -4 96 1016 ...
09 VRB02MPS 9999 BKN005 SFC MOD FL10/FL20 MOD SFC/FL20 -1 -2 89 1017 ...
12 VRB02MPS 9999 BKN004 SFC MOD FL10/FL40 MOD SFC/FL20 -0 -2 91 1016 ...
15 14003MPS 5000 BR BKN008 BR SFC MOD FL10/FL120 -1 -2 92 1014 ...
18 14004MPS 5000 BR BKN009 BR SFC MOD FL10/FL170 -2 -3 92 1013 ...
21 14004MPS 9999 BKN006 SFC MOD FL10/FL20 MOD SFC/FL20 -3 -4 91 1011 ...
23.10.2020
00 13005G12MPS 5000 BR BKN007 BR SFC MOD FL10/FL190 MOD SFC/FL20 -3 -4 90 1009 ...
03 13005G13MPS 9999 OVC007 SFC MOD FL10/FL150 MOD SFC/FL20 -3 -4 89 1006 ...
06 13006G14MPS 9999 OVC004 SFC FBL FL20/FL190 -2 -3 90 1003 ...
09 13006G15MPS 2000 SN BR OVC003 SN BR SFC FBL FL20/FL190 MOD FL40/FL50 -1 -2 93 1000 ...
12 13006G14MPS 1500 SN BR OVC002 SN BR SFC MOD FL110/FL120 MOD FL40/FL50 -1 -1 96 998 ...
15 13005G13MPS 1000 SN BR OVC001 SN BR SFC MOD FL110/FL120 -0 -1 96 995 ...


Широта 62.9°, долгота 42.7°, высота 34 м абс.
Средняя высота рельефа местности 31 м абс.
Прогнозы обновляются четыре раза в сутки: в 02, 08, 14, 20 ч всемирного времени.


Выбрать прогноз по другой модели Двинский Березник
Онлайн-сводка гроз по Двинский Березник (для РФ и ближнего зарубежья)
Карта фактических гроз в окрестностях Двинский Березник
Динамические прогностические карты (ventusky.com)
Прогностическая карта высоты нижней границы облаков по Двинский Березник (windy.com)
Выбрать другой город

Прогноз предназначен для личного научно-познавательного использования частными лицами
и не предназначен для принятия важных решений и выполнения реальных полётов воздушных судов

При копировании или ином использовании любых материалов данного сайта ссылка на © meteocenter.asia обязательна.

0.9/1.3